Airfield :
LOGIN :

Register | Disclaimer

   EN    FR    IT 

 










Legend :    VFR   Marginal VFR   IFR   Intensive IFR   Very Intensive IFR
Visi :
Ceiling :
>= 8 km
>= 3000ft
5 to 8 km
1000 to 3000 ft
1500m to 5 km
500 to 1000 ft
800 to 1500m
200 to 500 ft
< 800m
< 200 ft
Symbols :   Thunderstorms  Fog  Heavy snow  Heavy precipitations  Wind > 20 kt
SIGMETs :     Misc.  Thunderstorms  Icing  Turbulence  Mountain Waves  Volcanic Ashes







- Airport Elevation : 353 ft
- IATA code : LIN


LIML - Milano Linate

CURRENT METAR :
  • 242050Z 26005KT CAVOK 15/01 Q1017 NOSIG

EXPIRED METARs :
  • 242020Z 25006KT CAVOK 17/01 Q1017 NOSIG
  • 241950Z 24005KT 200V260 CAVOK 17/02 Q1017 NOSIG
  • 241920Z 27001KT CAVOK 13/04 Q1017 NOSIG
  • 241850Z 26002KT CAVOK 16/04 Q1017 NOSIG
  • 241820Z 28001KT CAVOK 17/04 Q1016 NOSIG

TAF TAF LIML
Valid from the 24 at 18:00 until the 25 at 18:00 UTC


241700Z 2418/2518 VRB05KT CAVOK
BECMG 2514/2516 35017KT
TEMPO 2516/2518 01020G35KT
No reported NOTAMs for that airfield.



MET'MAP, your aeronautical weather chart ! - Copyright ORBIFLY December 2007 - Disclaimer

ORBIFLY MET'MAP TEAM :

Programming & Development : Alexandra Zaïnal
Concept & Development : Baudouin d'Aumeries
Co-Development & Prog : Marc-Olivier Méhu
Technical & hardware support : Manuel Goepfert

Contact : metmap@orbifly.com




SOURCES & CREDITS :

   NOAA